createdAt,value
2022-07-29T00:00:10.790Z,97937.56
2022-07-29T00:02:40.881Z,97940.16
2022-07-29T00:05:14.483Z,97943.09
2022-07-29T00:07:43.256Z,97938.00
2022-07-29T00:10:11.806Z,97929.97
2022-07-29T00:12:41.429Z,97933.16
2022-07-29T00:15:11.158Z,97930.47
2022-07-29T00:17:41.707Z,97925.59
2022-07-29T00:20:12.187Z,97929.31
2022-07-29T00:22:41.342Z,97926.28
2022-07-29T00:25:10.781Z,97930.50
2022-07-29T00:27:40.739Z,97920.69
2022-07-29T00:30:10.589Z,97917.47
2022-07-29T00:32:40.474Z,97917.72
2022-07-29T00:35:27.999Z,97919.56
2022-07-29T00:37:56.473Z,97921.69
2022-07-29T00:40:25.972Z,97915.78
2022-07-29T00:42:55.217Z,97909.59
2022-07-29T00:45:24.790Z,97910.91
2022-07-29T00:47:54.646Z,97910.31
2022-07-29T00:50:23.259Z,97897.03
2022-07-29T00:52:53.542Z,97901.31
2022-07-29T00:55:22.884Z,97901.22
2022-07-29T00:57:52.398Z,97893.25
2022-07-29T01:00:27.175Z,97891.25
2022-07-29T01:02:57.663Z,97902.63
2022-07-29T01:05:48.511Z,97895.72
2022-07-29T01:08:19.708Z,97889.28
2022-07-29T01:10:49.986Z,97892.88
2022-07-29T01:13:19.699Z,97887.56
2022-07-29T01:15:57.892Z,97883.88
2022-07-29T01:18:37.607Z,97888.66
2022-07-29T01:21:42.386Z,97880.38
2022-07-29T01:24:41.960Z,97878.97
2022-07-29T01:27:41.338Z,97884.13
2022-07-29T01:30:14.745Z,97879.84
2022-07-29T01:32:52.290Z,97883.50
2022-07-29T01:35:27.422Z,97900.84
2022-07-29T01:38:10.475Z,97890.75
2022-07-29T01:40:47.324Z,97895.91
2022-07-29T01:43:22.458Z,97890.00
2022-07-29T01:46:01.396Z,97894.34
2022-07-29T01:48:42.434Z,97889.50
2022-07-29T01:51:20.062Z,97890.56
2022-07-29T01:53:57.633Z,97892.41
2022-07-29T01:56:31.907Z,97892.91
2022-07-29T01:59:03.796Z,97899.97
2022-07-29T02:01:37.919Z,97890.81
2022-07-29T02:04:11.512Z,97892.44
2022-07-29T02:07:03.993Z,97899.31
2022-07-29T02:09:36.951Z,97897.59
2022-07-29T02:12:10.114Z,97896.63
2022-07-29T02:14:44.534Z,97899.50
2022-07-29T02:17:19.808Z,97903.44
2022-07-29T02:19:51.847Z,97895.19
2022-07-29T02:22:23.865Z,97891.03
2022-07-29T02:24:56.434Z,97883.63
2022-07-29T02:27:28.550Z,97877.69
2022-07-29T02:30:00.624Z,97896.13
2022-07-29T02:32:33.865Z,97889.44
2022-07-29T02:35:04.584Z,97894.25
2022-07-29T02:37:35.182Z,97888.72
2022-07-29T02:40:06.519Z,97891.78
2022-07-29T02:42:39.572Z,97892.75
2022-07-29T02:45:10.803Z,97893.53
2022-07-29T02:47:45.973Z,97891.06
2022-07-29T02:50:19.754Z,97896.34
2022-07-29T02:52:59.017Z,97891.28
2022-07-29T02:55:34.380Z,97892.91
2022-07-29T02:58:09.427Z,97893.13
2022-07-29T03:00:43.405Z,97893.59
2022-07-29T03:03:17.169Z,97899.88
2022-07-29T03:05:45.810Z,97902.19
2022-07-29T03:08:16.866Z,97897.22
2022-07-29T03:10:48.974Z,97895.38
2022-07-29T03:13:18.280Z,97899.06
2022-07-29T03:15:49.458Z,97898.03
2022-07-29T03:18:20.292Z,97896.75
2022-07-29T03:20:49.328Z,97903.66
2022-07-29T03:23:23.702Z,97907.66
2022-07-29T03:25:54.958Z,97895.44
2022-07-29T03:28:28.290Z,97896.25
2022-07-29T03:30:57.558Z,97906.84
2022-07-29T03:33:31.354Z,97899.47
2022-07-29T03:36:01.201Z,97899.47
2022-07-29T03:38:32.646Z,97894.97
2022-07-29T03:41:08.159Z,97899.47
2022-07-29T03:43:49.289Z,97904.19
2022-07-29T03:46:23.057Z,97900.03
2022-07-29T03:49:00.593Z,97907.97
2022-07-29T03:51:33.770Z,97913.75
2022-07-29T03:54:09.307Z,97910.63
2022-07-29T03:56:45.577Z,97909.00
2022-07-29T03:59:17.639Z,97905.56
2022-07-29T04:01:48.651Z,97905.56
2022-07-29T04:04:19.975Z,97905.00
2022-07-29T04:06:50.654Z,97901.06
2022-07-29T04:09:24.125Z,97892.09
2022-07-29T04:12:01.704Z,97891.59
2022-07-29T04:14:31.342Z,97899.31
2022-07-29T04:17:00.642Z,97907.81
2022-07-29T04:19:30.615Z,97905.75
2022-07-29T04:21:59.470Z,97908.13
2022-07-29T04:24:28.216Z,97904.47
2022-07-29T04:26:57.523Z,97902.63
2022-07-29T04:29:26.605Z,97903.97
2022-07-29T04:31:55.040Z,97916.19
2022-07-29T04:34:28.168Z,97911.91
2022-07-29T04:36:58.472Z,97920.66
2022-07-29T04:39:29.624Z,97910.09
2022-07-29T04:41:59.401Z,97922.50
2022-07-29T04:44:30.137Z,97911.91
2022-07-29T04:46:59.640Z,97919.88
2022-07-29T04:49:28.771Z,97921.47
2022-07-29T04:51:59.223Z,97915.94
2022-07-29T04:54:28.901Z,97921.00
2022-07-29T04:56:58.936Z,97922.03
2022-07-29T04:59:28.025Z,97923.66
2022-07-29T05:01:57.127Z,97925.81
2022-07-29T05:04:26.653Z,97917.88
2022-07-29T05:06:57.600Z,97923.16
2022-07-29T05:09:26.577Z,97928.00
2022-07-29T05:11:55.065Z,97934.34
2022-07-29T05:14:24.092Z,97922.47
2022-07-29T05:16:54.563Z,97930.97
2022-07-29T05:19:23.023Z,97930.97
2022-07-29T05:21:51.993Z,97928.88
2022-07-29T05:24:22.431Z,97927.03
2022-07-29T05:26:50.919Z,97926.31
2022-07-29T05:29:42.640Z,97939.34
2022-07-29T05:32:09.228Z,97938.84
2022-07-29T05:34:38.287Z,97937.34
2022-07-29T05:37:20.936Z,97926.00
2022-07-29T05:39:56.692Z,97935.31
2022-07-29T05:42:26.386Z,97941.72
2022-07-29T05:44:56.335Z,97928.56
2022-07-29T05:47:26.366Z,97932.06
2022-07-29T05:49:55.015Z,97935.63
2022-07-29T05:52:23.889Z,97928.53
2022-07-29T05:54:54.435Z,97922.50
2022-07-29T05:57:25.085Z,97916.72
2022-07-29T05:59:55.105Z,97919.19
2022-07-29T06:02:23.721Z,97917.38
2022-07-29T06:04:52.694Z,97920.13
2022-07-29T06:07:21.564Z,97920.97
2022-07-29T06:09:50.237Z,97923.72
2022-07-29T06:12:21.049Z,97925.09
2022-07-29T06:14:53.921Z,97919.88
2022-07-29T06:17:23.119Z,97914.28
2022-07-29T06:19:52.013Z,97922.56
2022-07-29T06:22:21.080Z,97921.03
2022-07-29T06:24:49.985Z,97923.97
2022-07-29T06:27:20.610Z,97920.03
2022-07-29T06:29:49.168Z,97924.84
2022-07-29T06:32:17.693Z,97922.25
2022-07-29T06:34:49.022Z,97924.41
2022-07-29T06:37:19.376Z,97933.47
2022-07-29T06:39:48.657Z,97935.63
2022-07-29T06:42:17.580Z,97934.31
2022-07-29T06:44:48.025Z,97935.44
2022-07-29T06:47:16.649Z,97945.31
2022-07-29T06:49:45.198Z,97952.53
2022-07-29T06:52:14.061Z,97950.19
2022-07-29T06:54:49.536Z,97944.13
2022-07-29T06:57:18.684Z,97952.94
2022-07-29T06:59:49.995Z,97945.03
2022-07-29T07:02:18.515Z,97948.78
2022-07-29T07:04:47.089Z,97949.91
2022-07-29T07:07:18.713Z,97958.16
2022-07-29T07:09:47.291Z,97960.09
2022-07-29T07:12:16.850Z,97955.88
2022-07-29T07:14:46.021Z,97967.59
2022-07-29T07:17:16.099Z,97966.31
2022-07-29T07:19:44.696Z,97966.59
2022-07-29T07:22:14.805Z,97970.63
2022-07-29T07:24:43.372Z,97956.56
2022-07-29T07:27:11.905Z,97965.63
2022-07-29T07:29:43.514Z,97962.22
2022-07-29T07:32:14.221Z,97967.59
2022-07-29T07:34:44.247Z,97967.63
2022-07-29T07:37:12.891Z,97959.94
2022-07-29T07:39:41.456Z,97967.41
2022-07-29T07:42:12.421Z,97966.66
2022-07-29T07:45:03.808Z,97959.50
2022-07-29T07:47:30.809Z,97965.69
2022-07-29T07:50:05.287Z,97965.75
2022-07-29T07:52:34.161Z,97955.94
2022-07-29T07:55:03.214Z,97957.59
2022-07-29T07:57:31.746Z,97957.13
2022-07-29T08:00:00.247Z,97963.00
2022-07-29T08:02:29.040Z,97960.91
2022-07-29T08:04:57.784Z,97957.22
2022-07-29T08:07:28.844Z,97958.06
2022-07-29T08:09:57.480Z,97962.06
2022-07-29T08:12:25.996Z,97953.06
2022-07-29T08:14:55.137Z,97951.50
2022-07-29T08:17:24.523Z,97952.53
2022-07-29T08:19:53.145Z,97942.97
2022-07-29T08:22:22.192Z,97942.75
2022-07-29T08:24:57.164Z,97945.16
2022-07-29T08:27:43.021Z,97945.22
2022-07-29T08:30:13.841Z,97939.91
2022-07-29T08:32:57.937Z,97958.59
2022-07-29T08:35:27.052Z,97949.53
2022-07-29T08:37:57.796Z,97952.75
2022-07-29T08:40:31.988Z,97949.28
2022-07-29T08:43:02.532Z,97953.56
2022-07-29T08:45:32.104Z,97958.63
2022-07-29T08:48:01.752Z,97943.16
2022-07-29T08:50:30.574Z,97947.97
2022-07-29T08:52:59.998Z,97956.00
2022-07-29T08:55:31.201Z,97961.31
2022-07-29T08:58:01.052Z,97957.56
2022-07-29T09:00:31.618Z,97955.22
2022-07-29T09:03:02.083Z,97959.22
2022-07-29T09:05:32.854Z,97958.66
2022-07-29T09:08:04.740Z,97953.84
2022-07-29T09:10:34.806Z,97952.00
2022-07-29T09:13:04.048Z,97958.41
2022-07-29T09:15:33.459Z,97949.31
2022-07-29T09:18:03.216Z,97950.38
2022-07-29T09:20:52.116Z,97946.38
2022-07-29T09:23:23.284Z,97943.66
2022-07-29T09:25:54.804Z,97949.00
2022-07-29T09:28:24.834Z,97948.72
2022-07-29T09:30:55.419Z,97949.78
2022-07-29T09:33:25.851Z,97947.91
2022-07-29T09:36:04.733Z,97955.38
2022-07-29T09:38:36.365Z,97943.03
2022-07-29T09:41:09.080Z,97946.22
2022-07-29T09:43:38.927Z,97939.81
2022-07-29T09:46:13.692Z,97945.09
2022-07-29T09:48:42.453Z,97945.34
2022-07-29T09:51:24.175Z,97946.16
2022-07-29T09:53:57.136Z,97937.03
2022-07-29T09:56:42.022Z,97941.78
2022-07-29T09:59:12.289Z,97939.88
2022-07-29T10:01:40.904Z,97934.78
2022-07-29T10:04:09.675Z,97941.16
2022-07-29T10:07:03.807Z,97936.88
2022-07-29T10:09:34.310Z,97935.19
2022-07-29T10:12:29.189Z,97932.47
2022-07-29T10:14:58.188Z,97932.41
2022-07-29T10:17:27.648Z,97942.28
2022-07-29T10:19:56.851Z,97937.19
2022-07-29T10:22:50.793Z,97923.75
2022-07-29T10:25:14.794Z,97925.31
2022-07-29T10:27:45.953Z,97925.31
2022-07-29T10:30:16.879Z,97930.63
2022-07-29T10:33:02.430Z,97927.09
2022-07-29T10:35:47.984Z,97925.75
2022-07-29T10:38:47.092Z,97924.88
2022-07-29T10:41:44.710Z,97915.44
2022-07-29T10:44:23.183Z,97927.06
2022-07-29T10:47:22.528Z,97920.00
2022-07-29T10:50:01.104Z,97914.56
2022-07-29T10:52:57.512Z,97907.50
2022-07-29T10:55:43.427Z,97905.53
2022-07-29T10:58:19.836Z,97901.78
2022-07-29T11:00:51.917Z,97897.41
2022-07-29T11:03:50.358Z,97901.63
2022-07-29T11:09:25.791Z,97892.66
2022-07-29T11:12:05.697Z,97893.69
2022-07-29T11:15:02.474Z,97887.66
2022-07-29T11:18:15.148Z,97893.75
2022-07-29T11:20:51.094Z,97891.22
2022-07-29T11:23:28.206Z,97895.34
2022-07-29T11:29:23.959Z,97884.34
2022-07-29T11:31:56.777Z,97877.72
2022-07-29T11:34:31.476Z,97881.03
2022-07-29T11:37:27.971Z,97872.63
2022-07-29T11:40:20.289Z,97875.44
2022-07-29T11:42:53.337Z,97871.25
2022-07-29T11:45:44.312Z,97875.47
2022-07-29T11:48:31.778Z,97875.38
2022-07-29T11:51:13.679Z,97879.06
2022-07-29T11:53:43.133Z,97882.47
2022-07-29T11:56:20.924Z,97871.44
2022-07-29T11:59:08.473Z,97873.09
2022-07-29T12:01:37.863Z,97871.63
2022-07-29T12:04:07.910Z,97872.72
2022-07-29T12:06:38.351Z,97876.31
2022-07-29T12:07:03.694Z,97891.75
2022-07-29T12:09:14.702Z,97870.03
2022-07-29T12:11:45.032Z,97861.78
2022-07-29T12:14:30.926Z,97859.00
2022-07-29T12:17:00.761Z,97862.19
2022-07-29T12:19:29.522Z,97860.41
2022-07-29T12:22:02.526Z,97859.41
2022-07-29T12:24:46.077Z,97857.38
2022-07-29T12:27:19.572Z,97851.72
2022-07-29T12:29:58.988Z,97850.06
2022-07-29T12:32:35.936Z,97848.84
2022-07-29T12:35:08.696Z,97847.03
2022-07-29T12:37:42.675Z,97842.97
2022-07-29T12:40:15.887Z,97849.91
2022-07-29T12:43:08.059Z,97856.63
2022-07-29T12:45:37.806Z,97857.78
2022-07-29T12:48:09.524Z,97853.81
2022-07-29T12:50:54.167Z,97855.22
2022-07-29T12:53:24.219Z,97859.94
2022-07-29T12:55:55.441Z,97860.59
2022-07-29T12:58:33.378Z,97855.03
2022-07-29T13:01:17.414Z,97861.28
2022-07-29T13:03:57.380Z,97843.16
2022-07-29T13:06:39.931Z,97850.25
2022-07-29T13:09:16.161Z,97847.44
2022-07-29T13:11:48.744Z,97845.84
2022-07-29T13:14:34.534Z,97856.69
2022-07-29T13:17:07.440Z,97851.84
2022-07-29T13:19:41.328Z,97855.38
2022-07-29T13:22:12.618Z,97859.59
2022-07-29T13:24:54.095Z,97867.75
2022-07-29T13:27:25.314Z,97861.56
2022-07-29T13:29:57.390Z,97868.91
2022-07-29T13:32:28.349Z,97865.22
2022-07-29T13:34:59.755Z,97860.00
2022-07-29T13:37:30.650Z,97866.72
2022-07-29T13:40:01.980Z,97858.13
2022-07-29T13:42:30.808Z,97862.00
2022-07-29T13:45:00.198Z,97868.88
2022-07-29T13:47:32.426Z,97865.06
2022-07-29T13:50:03.818Z,97865.56
2022-07-29T13:52:34.675Z,97859.56
2022-07-29T13:55:05.798Z,97853.75
2022-07-29T13:57:34.863Z,97854.66
2022-07-29T14:00:04.616Z,97856.16
2022-07-29T14:02:34.116Z,97850.22
2022-07-29T14:05:07.668Z,97837.38
2022-07-29T14:07:37.714Z,97847.16
2022-07-29T14:10:09.643Z,97839.25
2022-07-29T14:12:38.394Z,97837.38
2022-07-29T14:15:09.382Z,97843.47
2022-07-29T14:17:38.054Z,97847.81
2022-07-29T14:20:08.232Z,97846.88
2022-07-29T14:22:42.462Z,97849.25
2022-07-29T14:25:15.667Z,97851.47
2022-07-29T14:27:45.345Z,97852.13
2022-07-29T14:30:15.125Z,97855.88
2022-07-29T14:32:44.368Z,97850.03
2022-07-29T14:35:12.984Z,97847.97
2022-07-29T14:37:41.626Z,97840.66
2022-07-29T14:40:12.180Z,97849.22
2022-07-29T14:42:42.301Z,97847.78
2022-07-29T14:45:12.124Z,97845.69
2022-07-29T14:47:42.053Z,97848.69
2022-07-29T14:50:12.118Z,97853.59
2022-07-29T14:52:41.002Z,97851.31
2022-07-29T14:55:16.559Z,97842.28
2022-07-29T14:57:50.985Z,97850.22
2022-07-29T15:00:21.783Z,97846.44
2022-07-29T15:03:01.757Z,97856.38
2022-07-29T15:05:31.894Z,97854.78
2022-07-29T15:08:01.604Z,97855.59
2022-07-29T15:10:30.579Z,97847.84
2022-07-29T15:13:00.505Z,97849.22
2022-07-29T15:15:29.040Z,97857.63
2022-07-29T15:17:57.558Z,97847.47
2022-07-29T15:20:28.114Z,97848.56
2022-07-29T15:22:58.876Z,97846.16
2022-07-29T15:25:28.608Z,97848.75
2022-07-29T15:28:01.155Z,97846.25
2022-07-29T15:30:34.420Z,97839.81
2022-07-29T15:33:04.991Z,97838.75
2022-07-29T15:35:40.312Z,97837.22
2022-07-29T15:38:10.171Z,97828.69
2022-07-29T15:40:42.151Z,97833.50
2022-07-29T15:43:10.655Z,97837.47
2022-07-29T15:45:42.231Z,97835.25
2022-07-29T15:48:14.945Z,97841.75
2022-07-29T15:50:47.059Z,97838.09
2022-07-29T15:53:16.455Z,97832.72
2022-07-29T15:55:46.111Z,97842.16
2022-07-29T15:58:15.216Z,97828.53
2022-07-29T16:00:45.183Z,97829.31
2022-07-29T16:03:13.870Z,97830.25
2022-07-29T16:05:42.517Z,97825.47
2022-07-29T16:08:11.428Z,97818.03
2022-07-29T16:10:40.047Z,97821.84
2022-07-29T16:13:08.788Z,97812.63
2022-07-29T16:15:37.868Z,97810.63
2022-07-29T16:18:09.581Z,97818.56
2022-07-29T16:20:38.293Z,97813.16
2022-07-29T16:23:07.759Z,97821.41
2022-07-29T16:25:58.837Z,97817.47
2022-07-29T16:28:25.128Z,97817.13
2022-07-29T16:30:53.579Z,97817.50
2022-07-29T16:33:24.632Z,97815.16
2022-07-29T16:35:54.331Z,97820.72
2022-07-29T16:38:22.895Z,97812.81
2022-07-29T16:40:52.079Z,97818.22
2022-07-29T16:43:20.679Z,97821.41
2022-07-29T16:45:49.214Z,97816.38
2022-07-29T16:48:18.778Z,97824.63
2022-07-29T16:50:48.745Z,97828.84
2022-07-29T16:53:17.249Z,97832.81
2022-07-29T16:55:46.480Z,97825.09
2022-07-29T16:58:15.026Z,97832.53
2022-07-29T17:00:44.050Z,97856.59
2022-07-29T17:03:12.800Z,97863.94
2022-07-29T17:05:52.412Z,97865.72
2022-07-29T17:08:25.398Z,97870.91
2022-07-29T17:10:54.411Z,97888.47
2022-07-29T17:13:23.119Z,97894.75
2022-07-29T17:15:51.650Z,97897.06
2022-07-29T17:18:20.103Z,97897.31
2022-07-29T17:20:48.679Z,97903.97
2022-07-29T17:23:17.133Z,97916.13
2022-07-29T17:25:47.115Z,97917.97
2022-07-29T17:28:16.006Z,97925.59
2022-07-29T17:30:44.458Z,97941.06
2022-07-29T17:33:12.915Z,97945.31
2022-07-29T17:35:58.585Z,97962.59
2022-07-29T17:38:27.721Z,97956.44
2022-07-29T17:40:57.859Z,97970.66
2022-07-29T17:43:26.856Z,97979.28
2022-07-29T17:45:59.267Z,97978.16
2022-07-29T17:48:28.671Z,97978.16
2022-07-29T17:50:58.576Z,97966.41
2022-07-29T17:53:27.046Z,97973.16
2022-07-29T17:55:58.295Z,97970.44
2022-07-29T17:58:27.389Z,97977.03
2022-07-29T18:00:55.866Z,97988.94
2022-07-29T18:03:25.673Z,97987.91
2022-07-29T18:05:54.641Z,97989.28
2022-07-29T18:08:23.263Z,97984.72
2022-07-29T18:10:52.372Z,97992.53
2022-07-29T18:13:22.400Z,97996.63
2022-07-29T18:15:50.965Z,97999.78
2022-07-29T18:18:20.413Z,98003.59
2022-07-29T18:20:49.248Z,97999.56
2022-07-29T18:23:18.034Z,98014.97
2022-07-29T18:25:46.502Z,98023.28
2022-07-29T18:28:15.018Z,98032.72
2022-07-29T18:30:46.177Z,98029.53
2022-07-29T18:33:22.149Z,98025.34
2022-07-29T18:36:11.282Z,98042.00
2022-07-29T18:38:41.924Z,98039.59
2022-07-29T18:41:10.457Z,98046.34
2022-07-29T18:43:39.001Z,98048.63
2022-07-29T18:46:09.516Z,98050.78
2022-07-29T18:48:38.657Z,98049.78
2022-07-29T18:51:09.295Z,98053.53
2022-07-29T18:53:38.616Z,98047.13
2022-07-29T18:56:07.220Z,98053.41
2022-07-29T18:58:37.096Z,98063.91
2022-07-29T19:01:05.762Z,98061.81
2022-07-29T19:03:35.879Z,98061.84
2022-07-29T19:06:04.812Z,98068.34
2022-07-29T19:08:34.469Z,98072.69
2022-07-29T19:11:03.014Z,98069.53
2022-07-29T19:13:33.225Z,98073.88
2022-07-29T19:16:02.114Z,98088.38
2022-07-29T19:18:30.658Z,98084.72
2022-07-29T19:21:00.550Z,98097.63
2022-07-29T19:23:29.732Z,98093.41
2022-07-29T19:25:59.554Z,98097.72
2022-07-29T19:28:28.848Z,98098.28
2022-07-29T19:30:58.861Z,98103.97
2022-07-29T19:33:27.560Z,98103.19
2022-07-29T19:35:56.492Z,98103.56
2022-07-29T19:38:26.561Z,98106.25
2022-07-29T19:40:56.003Z,98119.94
2022-07-29T19:43:51.239Z,98122.63
2022-07-29T19:46:13.181Z,98122.91
2022-07-29T19:48:41.903Z,98127.81
2022-07-29T19:51:11.192Z,98136.41
2022-07-29T19:53:41.541Z,98145.84
2022-07-29T19:56:10.543Z,98137.00
2022-07-29T19:58:40.539Z,98136.22
2022-07-29T20:01:10.969Z,98141.31
2022-07-29T20:03:41.193Z,98139.97
2022-07-29T20:06:09.688Z,98129.31
2022-07-29T20:08:40.028Z,98140.56
2022-07-29T20:11:08.567Z,98137.38
2022-07-29T20:13:37.085Z,98132.00
2022-07-29T20:16:08.303Z,98148.59
2022-07-29T20:18:37.198Z,98143.53
2022-07-29T20:21:05.868Z,98147.81
2022-07-29T20:23:34.675Z,98149.69
2022-07-29T20:26:09.296Z,98155.88
2022-07-29T20:28:40.292Z,98154.00
2022-07-29T20:31:09.152Z,98151.84
2022-07-29T20:33:37.896Z,98161.22
2022-07-29T20:36:07.458Z,98159.59
2022-07-29T20:38:36.871Z,98160.94
2022-07-29T20:41:07.414Z,98165.50
2022-07-29T20:43:38.899Z,98174.81
2022-07-29T20:46:07.794Z,98174.56
2022-07-29T20:48:37.030Z,98173.50
2022-07-29T20:51:06.373Z,98180.16
2022-07-29T20:53:35.547Z,98183.88
2022-07-29T20:56:04.165Z,98179.84
2022-07-29T20:58:34.660Z,98190.81
2022-07-29T21:01:03.825Z,98176.63
2022-07-29T21:03:32.564Z,98179.84
2022-07-29T21:06:01.504Z,98185.19
2022-07-29T21:08:30.608Z,98191.28
2022-07-29T21:10:59.125Z,98192.31
2022-07-29T21:13:28.075Z,98194.44
2022-07-29T21:16:03.380Z,98200.53
2022-07-29T21:18:37.350Z,98196.53
2022-07-29T21:21:06.990Z,98203.41
2022-07-29T21:23:35.973Z,98211.91
2022-07-29T21:26:09.871Z,98212.16
2022-07-29T21:28:40.685Z,98207.81
2022-07-29T21:31:13.741Z,98209.44
2022-07-29T21:33:44.437Z,98205.16
2022-07-29T21:36:46.858Z,98211.78
2022-07-29T21:39:07.130Z,98215.75
2022-07-29T21:41:36.440Z,98212.53
2022-07-29T21:44:05.040Z,98212.50
2022-07-29T21:46:36.556Z,98219.13
2022-07-29T21:49:05.237Z,98214.25
2022-07-29T21:51:34.389Z,98216.78
2022-07-29T21:54:03.436Z,98222.09
2022-07-29T21:56:32.015Z,98227.41
2022-07-29T21:59:01.406Z,98231.59
2022-07-29T22:01:39.019Z,98228.94
2022-07-29T22:04:09.685Z,98228.06
2022-07-29T22:06:38.289Z,98233.66
2022-07-29T22:09:06.990Z,98231.97
2022-07-29T22:11:36.753Z,98236.09
2022-07-29T22:14:05.476Z,98229.66
2022-07-29T22:16:34.116Z,98230.97
2022-07-29T22:19:06.352Z,98236.59
2022-07-29T22:21:36.194Z,98235.22
2022-07-29T22:24:05.685Z,98242.34
2022-07-29T22:26:34.917Z,98238.47
2022-07-29T22:29:03.855Z,98242.19
2022-07-29T22:31:32.485Z,98245.78
2022-07-29T22:34:01.575Z,98255.34
2022-07-29T22:36:30.240Z,98255.00
2022-07-29T22:39:00.528Z,98261.06
2022-07-29T22:41:29.615Z,98255.69
2022-07-29T22:43:58.111Z,98265.25
2022-07-29T22:46:26.971Z,98266.25
2022-07-29T22:48:55.659Z,98265.19
2022-07-29T22:51:27.114Z,98263.81
2022-07-29T22:53:55.742Z,98263.97
2022-07-29T22:56:26.227Z,98261.97
2022-07-29T22:58:55.518Z,98265.03
2022-07-29T23:01:37.251Z,98267.44
2022-07-29T23:04:07.454Z,98262.63
2022-07-29T23:06:36.310Z,98266.25
2022-07-29T23:09:05.243Z,98266.13
2022-07-29T23:11:35.750Z,98264.31
2022-07-29T23:14:04.217Z,98255.97
2022-07-29T23:16:33.027Z,98260.81
2022-07-29T23:19:02.648Z,98267.88
2022-07-29T23:21:31.267Z,98271.00
2022-07-29T23:23:59.776Z,98266.28
2022-07-29T23:26:28.329Z,98258.53
2022-07-29T23:28:58.830Z,98259.34
2022-07-29T23:31:27.419Z,98260.34
2022-07-29T23:33:56.986Z,98264.03
2022-07-29T23:36:25.427Z,98256.78
2022-07-29T23:38:58.064Z,98257.53
2022-07-29T23:41:31.999Z,98252.13
2022-07-29T23:44:03.349Z,98247.34
2022-07-29T23:46:31.838Z,98242.97
2022-07-29T23:49:00.945Z,98235.06
2022-07-29T23:51:30.880Z,98232.25
2022-07-29T23:53:59.937Z,98237.63
2022-07-29T23:56:28.906Z,98237.31
2022-07-29T23:58:57.958Z,98231.69
